El Kheiter, Algeria

6:27 AM CET on July 27, 2016 (GMT +0100)
Mecheria | | Change Station

Elev 3852 ft 33.53 °N, 0.25 °W | Updated 27 minutes ago

Haze
Haze
70 °F
Feels Like 70 °F
N
5
Wind Variable Wind from ENE

Today
High -- | Low -- °F
--% Chance of Precip.
Yesterday
High -- | Low -- °F
Precip. -- in
Pressure 30.24 in
Visibility 3.1 miles
Clouds
Dew Point 50 °F
Humidity 49%
Rainfall 0.00 in
Snow Depth Not available.
6:07 AM 8:04 PM
Waning Gibbous, 47% visible
METAR DAAY 270500Z 06004KT 5000 HZ NSC 21/10 Q1024
Pressure 30.24 in
Visibility 3.1 miles
Clouds
Dew Point 50 °F
Humidity 49%
Rainfall 0.00 in
Snow Depth Not available.
6:07 AM 8:04 PM
Waning Gibbous, 47% visible
METAR DAAY 270500Z 06004KT 5000 HZ NSC 21/10 Q1024

10-Day Weather Forecast

No radar image for this location.
×

Almanac

Astronomy

Jul. 27, 2016 Rise Set
Actual Time
Civil Twilight
Nautical Twilight
Astronomical Twilight
Moon
Length of Visible Light
Length of Day
Tomorrow will be .
, % of the Moon is Illuminated

Today's Extremes

Country Highs Country Lows

Community

WunderPhotos

Upload Photos

1,927,814 photos uploaded!

WunderBlog® & News

Nearby

Air Quality

  Air Quality AQ Index Pollutant
Not available.

Snow Depth

Station Depth Elevation

Earthquake Activity

City Distance Mag. Time & Date
Minimum magnitude displayed is 2.5.

Coastal Water Temperatures

Place Temperature

Stations

Nearby Weather Stations

Station Location Temp. Windchill Dew Point Humidity Wind Precip. Elev Updated Type